Terminal Aerodrome Forecast
Issued by NWS

Home | Current Version | Previous Version | Graphics & Text | Print | Product List | Glossary On
Versions: 1 2 3 4 5 6 7 8 9 10 11 12 13 14 15 16 17 18 19 20 21 22 23 24 25 26 27 28 29 30 31 32 33 34 35 36 37 38 39 40 41 42 43
507
FTUS43 KGRB 131007 AAB
TAFRHI
TAF AMD
KRHI 131007Z 1310/1406 13009KT 3SM -SN OVC012
     FM131130 12007KT 1SM -SN OVC010
     FM131800 04006KT 2SM -SN OVC015
     FM132300 03006KT 3SM -SN OVC022
     FM140300 35003KT P6SM -SHSN BKN040=

USA.gov is the U.S. government's official web portal to all federal, state and local government web resources and services.